createdAt,value
2022-12-12T00:01:16.010Z,38.70
2022-12-12T00:03:43.846Z,37.33
2022-12-12T00:06:11.517Z,33.93
2022-12-12T00:08:38.988Z,35.53
2022-12-12T00:11:06.766Z,35.87
2022-12-12T00:13:34.336Z,37.50
2022-12-12T00:16:02.083Z,39.50
2022-12-12T00:18:29.563Z,36.03
2022-12-12T00:20:57.516Z,32.80
2022-12-12T00:23:25.581Z,33.43
2022-12-12T00:25:56.972Z,31.47
2022-12-12T00:28:24.900Z,35.17
2022-12-12T00:30:52.375Z,34.70
2022-12-12T00:33:19.882Z,37.03
2022-12-12T00:35:50.377Z,36.73
2022-12-12T00:38:21.576Z,35.37
2022-12-12T00:40:49.264Z,31.23
2022-12-12T00:43:16.875Z,33.77
2022-12-12T00:45:44.413Z,33.73
2022-12-12T00:48:12.124Z,37.77
2022-12-12T00:50:39.522Z,37.13
2022-12-12T00:53:06.958Z,32.57
2022-12-12T00:55:34.479Z,33.10
2022-12-12T00:58:01.962Z,33.27
2022-12-12T01:00:29.733Z,39.00
2022-12-12T01:02:57.964Z,37.30
2022-12-12T01:05:25.988Z,31.33
2022-12-12T01:07:53.435Z,32.27
2022-12-12T01:10:21.008Z,33.60
2022-12-12T01:12:48.471Z,34.80
2022-12-12T01:15:15.916Z,32.70
2022-12-12T01:17:43.399Z,35.37
2022-12-12T01:20:36.952Z,29.40
2022-12-12T01:23:04.434Z,31.10
2022-12-12T01:25:31.883Z,30.70
2022-12-12T01:27:59.626Z,32.37
2022-12-12T01:30:27.482Z,36.00
2022-12-12T01:32:54.907Z,33.50
2022-12-12T01:35:23.022Z,35.20
2022-12-12T01:37:50.775Z,31.93
2022-12-12T01:40:22.759Z,32.33
2022-12-12T01:42:50.658Z,35.30
2022-12-12T01:45:36.580Z,37.90
2022-12-12T01:48:05.545Z,37.97
2022-12-12T01:50:33.164Z,42.13
2022-12-12T01:53:00.664Z,41.43
2022-12-12T01:55:28.064Z,41.10
2022-12-12T01:57:55.762Z,43.23
2022-12-12T02:00:23.435Z,37.93
2022-12-12T02:02:51.167Z,41.10
2022-12-12T02:05:30.925Z,42.03
2022-12-12T02:08:00.317Z,38.20
2022-12-12T02:10:27.818Z,36.80
2022-12-12T02:13:07.156Z,39.40
2022-12-12T02:15:40.071Z,42.07
2022-12-12T02:18:12.892Z,42.77
2022-12-12T02:20:46.354Z,48.37
2022-12-12T02:23:13.899Z,46.67
2022-12-12T02:25:56.691Z,52.30
2022-12-12T02:28:24.103Z,44.80
2022-12-12T02:31:29.935Z,52.30
2022-12-12T02:34:00.314Z,47.93
2022-12-12T02:36:50.840Z,57.43
2022-12-12T02:39:36.402Z,45.27
2022-12-12T02:42:06.374Z,42.87
2022-12-12T02:44:40.495Z,46.50
2022-12-12T02:47:14.831Z,50.10
2022-12-12T02:49:45.944Z,44.80
2022-12-12T02:52:13.584Z,45.83
2022-12-12T02:54:41.058Z,45.30
2022-12-12T02:57:24.980Z,46.07
2022-12-12T02:59:53.838Z,42.53
2022-12-12T03:02:21.276Z,41.93
2022-12-12T03:05:07.457Z,37.43
2022-12-12T03:07:46.955Z,43.10
2022-12-12T03:10:31.771Z,40.87
2022-12-12T03:13:05.067Z,43.67
2022-12-12T03:15:52.830Z,37.60
2022-12-12T03:18:25.156Z,39.80
2022-12-12T03:20:55.698Z,37.10
2022-12-12T03:23:25.774Z,37.57
2022-12-12T03:26:01.590Z,35.77
2022-12-12T03:28:33.862Z,41.60
2022-12-12T03:31:04.725Z,36.10
2022-12-12T03:33:34.943Z,42.07
2022-12-12T03:36:12.894Z,36.27
2022-12-12T03:38:47.787Z,41.77
2022-12-12T03:41:19.430Z,34.83
2022-12-12T03:43:51.255Z,40.53
2022-12-12T03:46:21.378Z,38.70
2022-12-12T03:48:56.551Z,37.33
2022-12-12T03:51:26.864Z,41.17
2022-12-12T03:53:54.266Z,40.13
2022-12-12T03:56:40.220Z,40.30
2022-12-12T03:59:07.650Z,34.27
2022-12-12T04:01:53.690Z,39.47
2022-12-12T04:04:25.559Z,44.97
2022-12-12T04:06:58.948Z,37.33
2022-12-12T04:09:27.170Z,38.20
2022-12-12T04:12:13.253Z,34.90
2022-12-12T04:14:59.193Z,41.73
2022-12-12T04:17:40.387Z,38.47
2022-12-12T04:20:22.912Z,37.03
2022-12-12T04:22:57.206Z,39.63
2022-12-12T04:25:34.056Z,32.30
2022-12-12T04:28:04.139Z,38.63
2022-12-12T04:30:32.410Z,35.60
2022-12-12T04:33:04.507Z,38.67
2022-12-12T04:35:34.249Z,40.07
2022-12-12T04:38:04.345Z,41.13
2022-12-12T04:40:33.890Z,39.47
2022-12-12T04:43:03.635Z,38.13
2022-12-12T04:45:33.603Z,38.93
2022-12-12T04:48:01.839Z,38.43
2022-12-12T04:50:30.762Z,39.73
2022-12-12T04:52:59.436Z,47.37
2022-12-12T04:55:26.814Z,38.47
2022-12-12T04:57:55.147Z,42.03
2022-12-12T05:00:23.930Z,38.37
2022-12-12T05:02:54.146Z,40.20
2022-12-12T05:05:27.222Z,39.73
2022-12-12T05:08:01.167Z,40.13
2022-12-12T05:10:28.880Z,44.50
2022-12-12T05:13:00.318Z,38.53
2022-12-12T05:15:28.909Z,36.73
2022-12-12T05:18:03.905Z,41.47
2022-12-12T05:20:31.432Z,46.40
2022-12-12T05:22:58.943Z,47.93
2022-12-12T05:25:26.477Z,45.60
2022-12-12T05:27:53.974Z,45.33
2022-12-12T05:30:21.865Z,44.33
2022-12-12T05:32:49.539Z,43.83
2022-12-12T05:35:17.311Z,43.17
2022-12-12T05:37:51.253Z,50.50
2022-12-12T05:40:19.646Z,40.13
2022-12-12T05:42:47.292Z,45.47
2022-12-12T05:45:15.389Z,44.97
2022-12-12T05:47:42.956Z,50.57
2022-12-12T05:50:13.456Z,42.00
2022-12-12T05:52:41.006Z,45.00
2022-12-12T05:55:08.688Z,44.53
2022-12-12T05:57:36.185Z,51.90
2022-12-12T06:00:04.234Z,51.00
2022-12-12T06:02:31.725Z,47.13
2022-12-12T06:04:59.511Z,53.77
2022-12-12T06:07:26.974Z,48.00
2022-12-12T06:09:54.387Z,50.80
2022-12-12T06:12:21.956Z,48.97
2022-12-12T06:14:49.366Z,51.50
2022-12-12T06:17:16.893Z,45.13
2022-12-12T06:19:44.586Z,47.07
2022-12-12T06:22:12.176Z,43.97
2022-12-12T06:24:39.679Z,48.20
2022-12-12T06:27:07.149Z,40.83
2022-12-12T06:29:34.657Z,44.00
2022-12-12T06:32:02.167Z,54.57
2022-12-12T06:34:29.767Z,46.67
2022-12-12T06:36:57.216Z,51.40
2022-12-12T06:39:24.679Z,53.80
2022-12-12T06:41:52.082Z,45.93
2022-12-12T06:44:19.587Z,47.83
2022-12-12T06:46:47.173Z,49.73
2022-12-12T06:49:14.718Z,49.50
2022-12-12T06:51:42.295Z,44.80
2022-12-12T06:54:09.967Z,49.03
2022-12-12T06:56:37.645Z,50.83
2022-12-12T06:59:05.105Z,38.53
2022-12-12T07:01:32.608Z,40.13
2022-12-12T07:04:00.339Z,42.57
2022-12-12T07:06:27.910Z,45.43
2022-12-12T07:08:55.625Z,47.63
2022-12-12T07:11:24.449Z,44.33
2022-12-12T07:13:52.493Z,51.10
2022-12-12T07:16:20.706Z,51.40
2022-12-12T07:18:48.612Z,42.37
2022-12-12T07:21:17.578Z,36.67
2022-12-12T07:23:45.363Z,47.23
2022-12-12T07:26:14.978Z,49.03
2022-12-12T07:28:42.523Z,44.87
2022-12-12T07:31:11.393Z,39.63
2022-12-12T07:33:44.209Z,40.27
2022-12-12T07:36:12.756Z,41.83
2022-12-12T07:38:40.307Z,47.63
2022-12-12T07:41:12.951Z,40.73
2022-12-12T07:43:44.100Z,50.03
2022-12-12T07:46:18.300Z,43.77
2022-12-12T07:48:45.811Z,48.27
2022-12-12T07:51:13.798Z,47.47
2022-12-12T07:53:41.557Z,46.10
2022-12-12T07:56:10.458Z,46.57
2022-12-12T07:58:37.981Z,43.07
2022-12-12T08:01:14.640Z,41.27
2022-12-12T08:03:43.179Z,41.70
2022-12-12T08:06:11.259Z,43.33
2022-12-12T08:08:38.861Z,41.47
2022-12-12T08:11:11.213Z,45.73
2022-12-12T08:13:41.785Z,44.57
2022-12-12T08:16:13.985Z,39.87
2022-12-12T08:18:44.599Z,40.77
2022-12-12T08:21:24.525Z,37.03
2022-12-12T08:23:55.984Z,35.23
2022-12-12T08:26:26.827Z,35.73
2022-12-12T08:28:55.286Z,43.00
2022-12-12T08:31:32.645Z,37.77
2022-12-12T08:34:01.847Z,38.03
2022-12-12T08:36:34.170Z,34.50
2022-12-12T08:39:11.516Z,39.63
2022-12-12T08:41:41.460Z,36.10
2022-12-12T08:44:11.059Z,37.63
2022-12-12T08:46:39.341Z,38.40
2022-12-12T08:49:07.007Z,38.07
2022-12-12T08:51:34.697Z,39.70
2022-12-12T08:54:02.166Z,36.77
2022-12-12T08:56:29.645Z,37.63
2022-12-12T08:58:57.382Z,36.60
2022-12-12T09:01:26.149Z,38.57
2022-12-12T09:03:54.882Z,37.03
2022-12-12T09:06:22.807Z,34.57
2022-12-12T09:08:52.251Z,33.20
2022-12-12T09:11:22.216Z,33.60
2022-12-12T09:13:53.691Z,33.57
2022-12-12T09:16:21.599Z,29.67
2022-12-12T09:18:49.664Z,34.13
2022-12-12T09:21:17.900Z,31.37
2022-12-12T09:23:45.445Z,28.40
2022-12-12T09:26:12.967Z,31.80
2022-12-12T09:28:40.607Z,33.87
2022-12-12T09:31:08.932Z,31.27
2022-12-12T09:33:36.682Z,30.13
2022-12-12T09:36:06.032Z,28.97
2022-12-12T09:38:33.597Z,30.70
2022-12-12T09:41:02.303Z,27.40
2022-12-12T09:43:33.003Z,29.07
2022-12-12T09:46:00.691Z,31.03
2022-12-12T09:48:42.946Z,28.13
2022-12-12T09:51:10.898Z,28.30
2022-12-12T09:53:39.468Z,30.80
2022-12-12T09:56:19.469Z,24.63
2022-12-12T09:58:55.360Z,28.13
2022-12-12T10:01:27.903Z,27.20
2022-12-12T10:03:55.346Z,23.67
2022-12-12T10:06:38.729Z,31.80
2022-12-12T10:09:09.415Z,26.77
2022-12-12T10:11:38.247Z,27.23
2022-12-12T10:14:06.911Z,25.33
2022-12-12T10:16:34.467Z,23.67
2022-12-12T10:19:22.779Z,21.27
2022-12-12T10:21:52.158Z,26.17
2022-12-12T10:24:30.842Z,23.70
2022-12-12T10:26:59.193Z,23.57
2022-12-12T10:29:27.161Z,25.03
2022-12-12T10:31:54.673Z,22.43
2022-12-12T10:34:37.541Z,26.73
2022-12-12T10:37:19.820Z,22.37
2022-12-12T10:40:16.538Z,22.83
2022-12-12T10:42:59.351Z,20.47
2022-12-12T10:45:36.143Z,26.00
2022-12-12T10:48:03.947Z,21.27
2022-12-12T10:50:31.407Z,22.50
2022-12-12T10:52:58.913Z,22.90
2022-12-12T10:55:35.641Z,24.17
2022-12-12T10:58:03.814Z,23.70
2022-12-12T11:00:36.042Z,23.20
2022-12-12T11:03:12.756Z,24.30
2022-12-12T11:05:41.515Z,24.37
2022-12-12T11:08:21.356Z,24.73
2022-12-12T11:10:59.654Z,21.97
2022-12-12T11:13:27.177Z,24.93
2022-12-12T11:16:02.612Z,23.73
2022-12-12T11:18:30.706Z,25.37
2022-12-12T11:21:01.248Z,22.60
2022-12-12T11:23:30.564Z,24.73
2022-12-12T11:26:01.593Z,23.23
2022-12-12T11:28:32.561Z,23.93
2022-12-12T11:31:04.943Z,22.97
2022-12-12T11:33:46.523Z,22.70
2022-12-12T11:36:18.490Z,26.27
2022-12-12T11:38:56.464Z,26.07
2022-12-12T11:41:24.331Z,26.33
2022-12-12T11:43:53.080Z,24.93
2022-12-12T11:46:24.159Z,24.17
2022-12-12T11:48:54.439Z,27.10
2022-12-12T11:51:42.011Z,26.20
2022-12-12T11:54:30.630Z,22.60
2022-12-12T11:57:12.118Z,31.23
2022-12-12T11:59:39.742Z,24.93
2022-12-12T12:02:25.797Z,23.20
2022-12-12T12:04:59.422Z,27.97
2022-12-12T12:07:30.168Z,23.73
2022-12-12T12:10:01.494Z,23.60
2022-12-12T12:13:07.478Z,22.30
2022-12-12T12:15:51.789Z,22.70
2022-12-12T12:18:31.536Z,30.13
2022-12-12T12:21:11.324Z,25.50
2022-12-12T12:23:50.610Z,24.27
2022-12-12T12:26:21.006Z,24.80
2022-12-12T12:29:09.459Z,24.50
2022-12-12T12:31:36.990Z,21.17
2022-12-12T12:34:07.280Z,25.57
2022-12-12T12:36:34.936Z,24.20
2022-12-12T12:39:15.877Z,26.47
2022-12-12T12:42:00.197Z,23.33
2022-12-12T12:44:27.964Z,22.33
2022-12-12T12:47:12.443Z,21.17
2022-12-12T12:49:46.796Z,23.87
2022-12-12T12:52:20.624Z,25.87
2022-12-12T12:54:48.898Z,20.87
2022-12-12T12:57:26.237Z,22.37
2022-12-12T12:59:55.810Z,22.97
2022-12-12T13:02:42.019Z,23.97
2022-12-12T13:05:24.290Z,20.20
2022-12-12T13:07:51.980Z,23.17
2022-12-12T13:10:27.521Z,24.07
2022-12-12T13:12:55.131Z,18.83
2022-12-12T13:15:26.017Z,25.20
2022-12-12T13:18:00.948Z,20.77
2022-12-12T13:20:29.685Z,21.13
2022-12-12T13:23:08.639Z,21.67
2022-12-12T13:25:42.043Z,19.50
2022-12-12T13:28:16.128Z,20.37
2022-12-12T13:30:48.884Z,19.70
2022-12-12T13:33:24.648Z,21.30
2022-12-12T13:35:53.909Z,20.60
2022-12-12T13:38:27.091Z,25.67
2022-12-12T13:41:02.231Z,20.27
2022-12-12T13:43:39.172Z,19.17
2022-12-12T13:46:19.199Z,21.40
2022-12-12T13:49:07.030Z,22.50
2022-12-12T13:51:41.811Z,19.97
2022-12-12T13:54:13.267Z,19.30
2022-12-12T13:56:42.734Z,18.80
2022-12-12T13:59:22.571Z,20.30
2022-12-12T14:01:51.171Z,21.17
2022-12-12T14:04:27.582Z,19.43
2022-12-12T14:07:05.632Z,24.23
2022-12-12T14:09:47.163Z,15.17
2022-12-12T14:12:18.220Z,20.47
2022-12-12T14:14:59.170Z,22.10
2022-12-12T14:17:28.737Z,18.20
2022-12-12T14:19:57.829Z,21.40
2022-12-12T14:22:29.908Z,19.10
2022-12-12T14:25:12.553Z,17.73
2022-12-12T14:27:48.990Z,19.70
2022-12-12T14:30:20.898Z,14.27
2022-12-12T14:32:52.158Z,15.67
2022-12-12T14:35:28.899Z,16.00
2022-12-12T14:38:27.784Z,16.07
2022-12-12T14:41:00.131Z,12.63
2022-12-12T14:43:30.288Z,16.47
2022-12-12T14:45:59.197Z,16.33
2022-12-12T14:48:34.239Z,14.40
2022-12-12T14:51:16.827Z,14.70
2022-12-12T14:53:46.400Z,17.50
2022-12-12T14:56:16.853Z,13.60
2022-12-12T14:58:59.672Z,17.37
2022-12-12T15:01:34.875Z,16.57
2022-12-12T15:04:07.027Z,18.03
2022-12-12T15:06:36.050Z,14.40
2022-12-12T15:09:17.534Z,18.77
2022-12-12T15:11:46.139Z,17.67
2022-12-12T15:14:22.975Z,20.53
2022-12-12T15:17:10.855Z,19.63
2022-12-12T15:19:41.269Z,18.53
2022-12-12T15:22:31.857Z,18.43
2022-12-12T15:25:00.831Z,20.67
2022-12-12T15:27:32.416Z,15.83
2022-12-12T15:30:01.000Z,16.70
2022-12-12T15:32:29.269Z,14.97
2022-12-12T15:35:09.148Z,16.63
2022-12-12T15:37:37.738Z,19.87
2022-12-12T15:40:08.238Z,16.83
2022-12-12T15:42:39.860Z,22.23
2022-12-12T15:45:08.399Z,17.30
2022-12-12T15:47:36.040Z,21.93
2022-12-12T15:50:10.120Z,18.40
2022-12-12T15:52:37.696Z,19.77
2022-12-12T15:55:05.388Z,18.63
2022-12-12T15:57:44.368Z,19.63
2022-12-12T16:00:25.225Z,20.10
2022-12-12T16:03:00.149Z,17.20
2022-12-12T16:05:34.855Z,19.37
2022-12-12T16:08:21.049Z,20.30
2022-12-12T16:10:52.980Z,21.73
2022-12-12T16:13:46.717Z,27.90
2022-12-12T16:16:32.854Z,19.97
2022-12-12T16:19:00.639Z,20.90
2022-12-12T16:21:28.788Z,23.80
2022-12-12T16:24:09.464Z,20.90
2022-12-12T16:26:37.060Z,20.23
2022-12-12T16:29:04.991Z,21.00
2022-12-12T16:31:32.504Z,22.07
2022-12-12T16:34:02.500Z,20.87
2022-12-12T16:36:30.186Z,22.23
2022-12-12T16:38:57.659Z,23.07
2022-12-12T16:41:25.183Z,21.90
2022-12-12T16:43:52.713Z,22.77
2022-12-12T16:46:20.258Z,22.90
2022-12-12T16:48:48.229Z,21.27
2022-12-12T16:51:16.879Z,24.07
2022-12-12T16:53:44.427Z,32.20
2022-12-12T16:56:13.059Z,30.33
2022-12-12T16:58:40.805Z,24.60
2022-12-12T17:01:08.356Z,24.93
2022-12-12T17:03:35.961Z,20.80
2022-12-12T17:06:03.534Z,28.87
2022-12-12T17:08:31.051Z,26.63
2022-12-12T17:11:10.442Z,25.37
2022-12-12T17:13:39.036Z,26.10
2022-12-12T17:16:06.681Z,26.97
2022-12-12T17:18:34.216Z,43.47
2022-12-12T17:21:01.769Z,37.43
2022-12-12T17:23:29.410Z,51.07
2022-12-12T17:26:03.629Z,42.97
2022-12-12T17:28:32.403Z,42.63
2022-12-12T17:31:00.045Z,45.17
2022-12-12T17:33:27.855Z,47.33
2022-12-12T17:36:03.060Z,65.87
2022-12-12T17:38:30.812Z,50.93
2022-12-12T17:40:58.940Z,41.03
2022-12-12T17:43:26.647Z,35.83
2022-12-12T17:45:58.056Z,30.57
2022-12-12T17:48:27.819Z,30.77
2022-12-12T17:51:03.217Z,27.47
2022-12-12T17:53:31.260Z,28.13
2022-12-12T17:56:01.198Z,26.97
2022-12-12T17:58:35.116Z,30.70
2022-12-12T18:01:09.490Z,29.50
2022-12-12T18:03:37.087Z,30.20
2022-12-12T18:06:04.839Z,36.13
2022-12-12T18:08:32.794Z,43.97
2022-12-12T18:11:02.035Z,48.10
2022-12-12T18:13:29.722Z,35.93
2022-12-12T18:15:58.076Z,29.83
2022-12-12T18:18:26.732Z,42.57
2022-12-12T18:20:54.698Z,34.63
2022-12-12T18:23:22.616Z,34.03
2022-12-12T18:25:50.564Z,43.40
2022-12-12T18:28:18.424Z,43.47
2022-12-12T18:30:49.013Z,43.07
2022-12-12T18:33:16.442Z,37.23
2022-12-12T18:35:44.163Z,39.17
2022-12-12T18:38:11.597Z,32.07
2022-12-12T18:40:39.066Z,37.40
2022-12-12T18:43:06.866Z,61.53
2022-12-12T18:45:37.739Z,56.00
2022-12-12T18:48:05.435Z,57.03
2022-12-12T18:50:33.423Z,49.13
2022-12-12T18:53:01.063Z,50.23
2022-12-12T18:55:28.525Z,77.57
2022-12-12T18:57:56.035Z,47.13
2022-12-12T19:00:26.592Z,37.93
2022-12-12T19:02:54.376Z,41.70
2022-12-12T19:05:21.903Z,84.70
2022-12-12T19:07:49.592Z,62.47
2022-12-12T19:10:17.404Z,42.33
2022-12-12T19:12:45.207Z,42.87
2022-12-12T19:15:17.162Z,43.63
2022-12-12T19:17:45.423Z,64.67
2022-12-12T19:20:13.215Z,74.37
2022-12-12T19:22:45.534Z,72.93
2022-12-12T19:25:15.131Z,89.47
2022-12-12T19:27:42.668Z,69.93
2022-12-12T19:30:10.801Z,47.13
2022-12-12T19:32:38.422Z,48.17
2022-12-12T19:35:06.158Z,46.43
2022-12-12T19:37:33.800Z,41.90
2022-12-12T19:40:01.285Z,44.33
2022-12-12T19:42:29.010Z,47.87
2022-12-12T19:44:56.917Z,49.57
2022-12-12T19:47:24.489Z,44.07
2022-12-12T19:49:52.020Z,44.07
2022-12-12T19:52:19.616Z,47.40
2022-12-12T19:54:47.126Z,49.13
2022-12-12T19:57:14.716Z,44.60
2022-12-12T19:59:42.245Z,61.47
2022-12-12T20:02:10.977Z,113.83
2022-12-12T20:04:38.657Z,69.17
2022-12-12T20:07:06.223Z,66.83
2022-12-12T20:09:35.199Z,53.43
2022-12-12T20:12:02.713Z,46.80
2022-12-12T20:14:31.964Z,57.87
2022-12-12T20:16:59.779Z,54.53
2022-12-12T20:19:27.630Z,51.83
2022-12-12T20:22:03.615Z,60.97
2022-12-12T20:24:35.620Z,48.43
2022-12-12T20:27:03.470Z,52.73
2022-12-12T20:29:31.492Z,52.60
2022-12-12T20:31:59.216Z,56.07
2022-12-12T20:34:26.649Z,46.43
2022-12-12T20:36:54.320Z,51.17
2022-12-12T20:39:21.751Z,49.60
2022-12-12T20:41:50.177Z,43.77
2022-12-12T20:44:17.886Z,40.13
2022-12-12T20:46:46.177Z,47.90
2022-12-12T20:49:15.483Z,46.43
2022-12-12T20:51:55.424Z,50.83
2022-12-12T20:54:24.086Z,46.70
2022-12-12T20:56:51.625Z,47.97
2022-12-12T20:59:19.198Z,44.63
2022-12-12T21:01:46.795Z,54.33
2022-12-12T21:04:14.489Z,49.07
2022-12-12T21:06:42.749Z,41.87
2022-12-12T21:09:11.784Z,41.90
2022-12-12T21:11:40.295Z,42.73
2022-12-12T21:14:08.091Z,39.57
2022-12-12T21:16:37.322Z,37.50
2022-12-12T21:19:06.732Z,37.03
2022-12-12T21:21:34.389Z,41.20
2022-12-12T21:24:02.229Z,37.97
2022-12-12T21:26:30.524Z,35.40
2022-12-12T21:28:58.836Z,40.27
2022-12-12T21:31:28.894Z,37.63
2022-12-12T21:33:56.949Z,40.10
2022-12-12T21:36:25.185Z,41.67
2022-12-12T21:38:53.401Z,36.67
2022-12-12T21:41:22.096Z,39.53
2022-12-12T21:43:50.287Z,103.40
2022-12-12T21:46:22.122Z,246.90
2022-12-12T21:48:50.070Z,90.80
2022-12-12T21:51:17.567Z,53.13
2022-12-12T21:53:45.084Z,45.73
2022-12-12T21:56:16.902Z,43.63
2022-12-12T21:58:47.749Z,44.07
2022-12-12T22:01:16.645Z,45.40
2022-12-12T22:03:44.789Z,45.23
2022-12-12T22:06:13.832Z,44.23
2022-12-12T22:08:41.666Z,44.57
2022-12-12T22:11:10.249Z,42.33
2022-12-12T22:13:40.260Z,42.33
2022-12-12T22:16:09.070Z,43.33
2022-12-12T22:18:36.896Z,46.03
2022-12-12T22:21:08.566Z,40.40
2022-12-12T22:23:36.314Z,46.47
2022-12-12T22:26:15.973Z,44.20
2022-12-12T22:28:43.488Z,45.30
2022-12-12T22:31:11.252Z,42.17
2022-12-12T22:33:38.883Z,37.30
2022-12-12T22:36:07.209Z,35.97
2022-12-12T22:38:38.279Z,38.67
2022-12-12T22:41:07.172Z,45.97
2022-12-12T22:43:34.786Z,37.53
2022-12-12T22:46:06.635Z,43.10
2022-12-12T22:48:35.146Z,38.60
2022-12-12T22:51:12.889Z,44.57
2022-12-12T22:53:44.124Z,45.97
2022-12-12T22:56:12.726Z,51.53
2022-12-12T22:58:40.451Z,49.70
2022-12-12T23:01:09.263Z,49.43
2022-12-12T23:03:36.953Z,48.73
2022-12-12T23:06:05.078Z,52.90
2022-12-12T23:08:32.645Z,54.20
2022-12-12T23:11:07.192Z,53.77
2022-12-12T23:13:34.734Z,43.60
2022-12-12T23:16:05.863Z,59.73
2022-12-12T23:18:33.405Z,51.77
2022-12-12T23:21:00.832Z,52.23
2022-12-12T23:23:29.446Z,50.40
2022-12-12T23:25:56.874Z,45.90
2022-12-12T23:28:24.427Z,43.07
2022-12-12T23:30:51.928Z,45.17
2022-12-12T23:33:19.384Z,46.40
2022-12-12T23:35:47.848Z,46.07
2022-12-12T23:38:15.866Z,43.33
2022-12-12T23:40:43.368Z,44.97
2022-12-12T23:43:11.033Z,44.03
2022-12-12T23:45:39.079Z,43.03
2022-12-12T23:48:06.803Z,46.47
2022-12-12T23:50:34.670Z,39.17
2022-12-12T23:53:05.051Z,43.30
2022-12-12T23:55:36.630Z,37.93
2022-12-12T23:58:04.076Z,41.63
